createdAt,value
2018-02-27T00:02:15.411Z,48.80
2018-02-27T00:04:44.578Z,48.30
2018-02-27T00:07:13.005Z,48.30
2018-02-27T00:09:42.145Z,47.80
2018-02-27T00:12:10.739Z,47.80
2018-02-27T00:14:39.120Z,47.40
2018-02-27T00:17:07.504Z,47.50
2018-02-27T00:19:35.925Z,47.40
2018-02-27T00:22:05.070Z,47.10
2018-02-27T00:24:33.634Z,47.00
2018-02-27T00:27:02.010Z,46.70
2018-02-27T00:29:30.392Z,46.90
2018-02-27T00:31:58.794Z,47.10
2018-02-27T00:34:27.167Z,47.30
2018-02-27T00:36:55.683Z,47.50
2018-02-27T00:39:24.819Z,46.90
2018-02-27T00:41:53.199Z,46.80
2018-02-27T00:44:21.599Z,46.70
2018-02-27T00:46:49.984Z,46.40
2018-02-27T00:49:18.542Z,46.30
2018-02-27T00:51:46.914Z,46.00
2018-02-27T00:54:15.291Z,45.80
2018-02-27T00:56:43.695Z,46.50
2018-02-27T00:59:12.074Z,46.60
2018-02-27T01:01:40.479Z,46.20
2018-02-27T01:04:08.870Z,45.70
2018-02-27T01:06:38.014Z,46.90
2018-02-27T01:09:07.045Z,47.00
2018-02-27T01:11:36.881Z,46.40
2018-02-27T01:14:06.758Z,46.40
2018-02-27T01:16:37.346Z,46.40
2018-02-27T01:19:07.207Z,46.10
2018-02-27T01:21:36.107Z,46.20
2018-02-27T01:24:04.918Z,46.20
2018-02-27T01:26:33.821Z,46.50
2018-02-27T01:29:02.648Z,46.50
2018-02-27T01:31:32.051Z,46.60
2018-02-27T01:34:00.923Z,46.50
2018-02-27T01:36:29.861Z,46.80
2018-02-27T01:38:58.258Z,46.40
2018-02-27T01:41:27.409Z,46.20
2018-02-27T01:43:55.805Z,46.20
2018-02-27T01:46:24.180Z,46.30
2018-02-27T01:48:52.551Z,46.30
2018-02-27T01:51:20.959Z,46.10
2018-02-27T01:53:50.098Z,46.20
2018-02-27T01:56:18.505Z,46.20
2018-02-27T01:58:46.908Z,46.20
2018-02-27T02:01:15.287Z,46.50
2018-02-27T02:03:43.682Z,46.80
2018-02-27T02:06:12.818Z,46.70
2018-02-27T02:08:41.502Z,46.60
2018-02-27T02:11:09.887Z,46.70
2018-02-27T02:13:38.261Z,46.60
2018-02-27T02:16:06.661Z,47.30
2018-02-27T02:18:35.042Z,46.70
2018-02-27T02:21:03.697Z,46.60
2018-02-27T02:23:32.078Z,46.50
2018-02-27T02:26:00.462Z,46.30
2018-02-27T02:28:28.870Z,46.10
2018-02-27T02:30:57.238Z,46.10
2018-02-27T02:33:26.106Z,46.40
2018-02-27T02:35:54.481Z,46.20
2018-02-27T02:38:22.869Z,46.50
2018-02-27T02:40:51.267Z,47.30
2018-02-27T02:43:19.642Z,46.40
2018-02-27T02:45:48.201Z,46.50
2018-02-27T02:48:16.581Z,46.30
2018-02-27T02:50:44.953Z,46.60
2018-02-27T02:53:13.358Z,46.70
2018-02-27T02:55:41.742Z,47.20
2018-02-27T02:58:10.165Z,46.80
2018-02-27T03:00:38.549Z,47.00
2018-02-27T03:03:06.921Z,47.00
2018-02-27T03:05:35.322Z,47.00
2018-02-27T03:08:03.704Z,47.20
2018-02-27T03:10:32.114Z,47.30
2018-02-27T03:13:00.493Z,47.60
2018-02-27T03:15:30.376Z,47.20
2018-02-27T03:17:58.777Z,47.20
2018-02-27T03:20:27.151Z,47.70
2018-02-27T03:22:55.818Z,47.40
2018-02-27T03:25:24.191Z,47.20
2018-02-27T03:27:52.572Z,47.50
2018-02-27T03:30:20.977Z,47.50
2018-02-27T03:32:49.355Z,47.90
2018-02-27T03:35:18.022Z,48.20
2018-02-27T03:37:46.402Z,48.10
2018-02-27T03:40:14.781Z,47.80
2018-02-27T03:42:43.173Z,47.40
2018-02-27T03:45:11.551Z,47.40
2018-02-27T03:47:39.949Z,47.60
2018-02-27T03:50:08.327Z,47.50
2018-02-27T03:52:37.071Z,47.80
2018-02-27T03:55:05.456Z,48.30
2018-02-27T03:57:33.829Z,48.10
2018-02-27T04:00:02.227Z,48.20
2018-02-27T04:02:30.602Z,48.30
2018-02-27T04:04:59.170Z,48.00
2018-02-27T04:07:27.550Z,47.30
2018-02-27T04:09:55.923Z,47.90
2018-02-27T04:12:24.321Z,47.90
2018-02-27T04:14:52.706Z,48.30
2018-02-27T04:17:21.213Z,48.60
2018-02-27T04:19:49.585Z,48.80
2018-02-27T04:22:17.954Z,49.00
2018-02-27T04:24:46.347Z,48.30
2018-02-27T04:27:14.730Z,48.20
2018-02-27T04:29:43.129Z,48.90
2018-02-27T04:32:12.262Z,48.70
2018-02-27T04:34:40.833Z,48.70
2018-02-27T04:37:09.214Z,48.50
2018-02-27T04:39:37.597Z,48.20
2018-02-27T04:42:05.998Z,48.50
2018-02-27T04:44:34.375Z,48.90
2018-02-27T04:47:04.170Z,48.60
2018-02-27T04:49:32.534Z,48.50
2018-02-27T04:52:01.119Z,48.20
2018-02-27T04:54:29.488Z,48.10
2018-02-27T04:56:57.861Z,48.00
2018-02-27T04:59:26.279Z,48.40
2018-02-27T05:01:54.658Z,48.30
2018-02-27T05:04:23.060Z,48.50
2018-02-27T05:06:51.429Z,49.00
2018-02-27T05:09:19.974Z,49.00
2018-02-27T05:11:48.344Z,48.40
2018-02-27T05:14:16.718Z,48.50
2018-02-27T05:16:45.172Z,48.60
2018-02-27T05:19:14.312Z,49.20
2018-02-27T05:21:42.704Z,49.20
2018-02-27T05:24:11.081Z,49.40
2018-02-27T05:26:39.641Z,49.00
2018-02-27T05:29:08.010Z,49.00
2018-02-27T05:31:36.414Z,49.50
2018-02-27T05:34:04.814Z,49.50
2018-02-27T05:36:33.189Z,49.40
2018-02-27T05:39:01.595Z,48.90
2018-02-27T05:41:30.743Z,48.70
2018-02-27T05:43:59.321Z,48.70
2018-02-27T05:46:27.696Z,48.50
2018-02-27T05:48:56.078Z,48.70
2018-02-27T05:51:24.481Z,49.00
2018-02-27T05:53:53.421Z,49.00
2018-02-27T05:56:21.869Z,49.00
2018-02-27T05:58:50.257Z,49.60
2018-02-27T06:01:18.691Z,49.40
2018-02-27T06:03:47.064Z,49.00
2018-02-27T06:06:15.444Z,48.70
2018-02-27T06:08:43.846Z,49.30
2018-02-27T06:11:12.240Z,49.30
2018-02-27T06:13:40.646Z,49.50
2018-02-27T06:16:09.799Z,49.80
2018-02-27T06:18:38.230Z,49.80
2018-02-27T06:21:06.606Z,49.20
2018-02-27T06:23:41.006Z,48.90
2018-02-27T06:26:10.149Z,49.90
2018-02-27T06:28:38.517Z,49.90
2018-02-27T06:31:06.911Z,49.50
2018-02-27T06:33:35.337Z,49.30
2018-02-27T06:36:03.733Z,49.30
2018-02-27T06:38:32.879Z,49.20
2018-02-27T06:41:01.381Z,49.20
2018-02-27T06:43:29.817Z,48.70
2018-02-27T06:45:59.028Z,48.10
2018-02-27T06:48:27.444Z,48.10
2018-02-27T06:50:55.823Z,48.20
2018-02-27T06:53:24.227Z,48.30
2018-02-27T06:55:52.606Z,48.20
2018-02-27T06:58:21.139Z,46.70
2018-02-27T07:00:49.510Z,46.50
2018-02-27T07:03:17.879Z,46.30
2018-02-27T07:05:46.277Z,45.40
2018-02-27T07:08:14.658Z,45.50
2018-02-27T07:10:43.060Z,44.70
2018-02-27T07:13:12.220Z,44.90
2018-02-27T07:15:40.990Z,44.90
2018-02-27T07:18:09.369Z,44.50
2018-02-27T07:20:37.738Z,47.40
2018-02-27T07:23:06.141Z,47.90
2018-02-27T07:25:34.520Z,46.50
2018-02-27T07:28:02.920Z,46.20
2018-02-27T07:30:31.309Z,44.80
2018-02-27T07:33:00.154Z,43.60
2018-02-27T07:35:28.526Z,43.20
2018-02-27T07:37:56.928Z,42.70
2018-02-27T07:40:25.323Z,41.80
2018-02-27T07:42:53.697Z,41.20
2018-02-27T07:45:22.090Z,40.10
2018-02-27T07:47:50.462Z,40.10
2018-02-27T07:50:19.002Z,38.60
2018-02-27T07:52:47.380Z,38.80
2018-02-27T07:55:15.754Z,38.60
2018-02-27T07:57:44.146Z,39.20
2018-02-27T08:00:12.514Z,38.50
2018-02-27T08:02:40.909Z,38.00
2018-02-27T08:05:09.287Z,38.40
2018-02-27T08:07:37.922Z,37.70
2018-02-27T08:10:07.128Z,37.30
2018-02-27T08:12:35.468Z,37.30
2018-02-27T08:15:03.874Z,37.30
2018-02-27T08:17:33.151Z,35.80
2018-02-27T08:20:01.548Z,35.80
2018-02-27T08:22:30.688Z,33.00
2018-02-27T08:24:59.269Z,33.00
2018-02-27T08:27:27.640Z,32.50
2018-02-27T08:29:56.006Z,31.70
2018-02-27T08:32:24.421Z,30.60
2018-02-27T08:34:52.790Z,29.50
2018-02-27T08:37:21.177Z,29.10
2018-02-27T08:39:49.560Z,28.60
2018-02-27T08:42:18.222Z,28.20
2018-02-27T08:44:46.614Z,27.40
2018-02-27T08:47:14.978Z,26.80
2018-02-27T08:49:43.365Z,26.90
2018-02-27T08:52:11.794Z,26.70
2018-02-27T08:54:40.186Z,25.80
2018-02-27T08:57:09.318Z,25.70
2018-02-27T08:59:38.004Z,25.60
2018-02-27T09:02:06.389Z,26.00
2018-02-27T09:04:34.753Z,25.50
2018-02-27T09:07:03.137Z,25.00
2018-02-27T09:09:31.498Z,24.10
2018-02-27T09:11:59.894Z,24.30
2018-02-27T09:14:28.258Z,23.10
2018-02-27T09:19:31.334Z,21.90
2018-02-27T09:22:00.493Z,20.20
2018-02-27T09:24:28.866Z,20.20
2018-02-27T09:26:57.434Z,20.40
2018-02-27T09:29:25.799Z,20.20
2018-02-27T09:31:54.166Z,20.30
2018-02-27T09:34:22.565Z,19.80
2018-02-27T09:36:50.934Z,20.20
2018-02-27T09:39:19.319Z,19.60
2018-02-27T09:41:47.691Z,19.30
2018-02-27T09:44:16.281Z,18.40
2018-02-27T09:46:44.661Z,18.30
2018-02-27T09:49:13.031Z,18.10
2018-02-27T09:51:41.422Z,18.50
2018-02-27T09:54:09.798Z,18.60
2018-02-27T09:56:38.304Z,18.50
2018-02-27T09:59:06.673Z,18.20
2018-02-27T10:01:35.046Z,17.30
2018-02-27T10:04:03.438Z,15.90
2018-02-27T10:06:31.844Z,15.70
2018-02-27T10:09:00.238Z,16.60
2018-02-27T10:11:29.377Z,16.00
2018-02-27T10:13:57.768Z,16.00
2018-02-27T10:16:26.137Z,16.00
2018-02-27T10:18:54.510Z,16.20
2018-02-27T10:21:22.910Z,15.80
2018-02-27T10:23:51.294Z,15.90
2018-02-27T10:26:19.691Z,15.10
2018-02-27T10:28:48.067Z,16.10
2018-02-27T10:31:16.615Z,15.60
2018-02-27T10:33:44.996Z,14.20
2018-02-27T10:36:13.370Z,14.60
2018-02-27T10:38:41.773Z,14.70
2018-02-27T10:41:10.146Z,14.80
2018-02-27T10:43:38.546Z,14.90
2018-02-27T10:46:06.974Z,13.70
2018-02-27T10:48:35.569Z,14.60
2018-02-27T10:51:03.988Z,14.00
2018-02-27T10:53:33.126Z,14.40
2018-02-27T10:56:01.521Z,13.70
2018-02-27T10:58:29.899Z,14.00
2018-02-27T11:00:59.814Z,15.20
2018-02-27T11:03:28.192Z,15.30
2018-02-27T11:05:56.614Z,16.00
2018-02-27T11:08:25.759Z,17.00
2018-02-27T11:10:54.452Z,16.50
2018-02-27T11:13:22.830Z,15.30
2018-02-27T11:15:51.209Z,15.30
2018-02-27T11:18:19.614Z,14.40
2018-02-27T11:20:48.005Z,14.50
2018-02-27T11:23:17.366Z,13.50
2018-02-27T11:25:45.744Z,13.40
2018-02-27T11:28:14.138Z,13.20
2018-02-27T11:30:42.534Z,12.40
2018-02-27T11:33:10.911Z,13.10
2018-02-27T11:35:39.558Z,12.60
2018-02-27T11:38:07.939Z,12.10
2018-02-27T11:40:36.321Z,12.20
2018-02-27T11:43:04.711Z,12.80
2018-02-27T11:45:33.118Z,13.10
2018-02-27T11:48:01.549Z,14.10
2018-02-27T11:50:29.926Z,14.20
2018-02-27T11:52:58.299Z,13.70
2018-02-27T11:55:26.690Z,14.30
2018-02-27T11:57:55.068Z,15.80
2018-02-27T12:00:23.650Z,15.90
2018-02-27T12:02:52.029Z,15.50
2018-02-27T12:05:20.394Z,15.60
2018-02-27T12:07:48.790Z,16.00
2018-02-27T12:10:17.162Z,16.90
2018-02-27T12:12:45.746Z,16.40
2018-02-27T12:15:14.124Z,16.30
2018-02-27T12:17:42.503Z,16.10
2018-02-27T12:20:10.898Z,16.10
2018-02-27T12:22:39.268Z,16.20
2018-02-27T12:25:07.840Z,16.40
2018-02-27T12:27:36.218Z,16.60
2018-02-27T12:30:04.596Z,18.00
2018-02-27T12:32:32.998Z,18.30
2018-02-27T12:35:01.371Z,17.50
2018-02-27T12:37:30.156Z,16.40
2018-02-27T12:39:58.530Z,16.00
2018-02-27T12:42:26.896Z,15.90
2018-02-27T12:44:55.297Z,15.50
2018-02-27T12:47:23.667Z,15.40
2018-02-27T12:49:52.067Z,14.60
2018-02-27T12:52:20.478Z,15.80
2018-02-27T12:54:50.129Z,17.00
2018-02-27T12:57:18.501Z,17.00
2018-02-27T12:59:46.884Z,16.70
2018-02-27T13:02:15.327Z,16.80
2018-02-27T13:04:44.458Z,16.50
2018-02-27T13:07:12.850Z,16.40
2018-02-27T13:09:41.235Z,16.40
2018-02-27T13:12:09.907Z,15.50
2018-02-27T13:14:38.289Z,15.70
2018-02-27T13:17:06.672Z,16.30
2018-02-27T13:19:35.067Z,17.80
2018-02-27T13:22:03.444Z,18.00
2018-02-27T13:24:31.853Z,18.50
2018-02-27T13:27:00.995Z,20.60
2018-02-27T13:29:29.562Z,20.60
2018-02-27T13:31:57.930Z,22.00
2018-02-27T13:34:26.302Z,22.30
2018-02-27T13:36:54.694Z,23.40
2018-02-27T13:39:23.071Z,23.90
2018-02-27T13:41:51.488Z,23.50
2018-02-27T13:44:19.873Z,23.60
2018-02-27T13:46:48.522Z,24.20
2018-02-27T13:49:24.842Z,23.60
2018-02-27T13:51:45.576Z,23.30
2018-02-27T13:54:14.106Z,23.70
2018-02-27T13:56:43.236Z,24.60
2018-02-27T13:59:12.395Z,25.20
2018-02-27T14:01:41.564Z,25.30
2018-02-27T14:04:10.796Z,25.20
2018-02-27T14:06:39.165Z,25.70
2018-02-27T14:09:07.727Z,26.40
2018-02-27T14:11:36.186Z,26.80
2018-02-27T14:14:04.566Z,27.60
2018-02-27T14:16:32.972Z,26.90
2018-02-27T14:19:01.345Z,27.10
2018-02-27T14:21:30.026Z,27.10
2018-02-27T14:23:58.411Z,26.80
2018-02-27T14:26:26.821Z,27.50
2018-02-27T14:28:55.981Z,28.00
2018-02-27T14:31:24.359Z,28.00
2018-02-27T14:33:52.750Z,27.90
2018-02-27T14:36:21.132Z,27.70
2018-02-27T14:38:49.694Z,28.50
2018-02-27T14:41:18.074Z,28.80
2018-02-27T14:43:46.457Z,28.60
2018-02-27T14:46:14.863Z,28.20
2018-02-27T14:48:43.241Z,28.10
2018-02-27T14:51:11.642Z,27.30
2018-02-27T14:53:40.014Z,27.80
2018-02-27T14:56:09.670Z,28.00
2018-02-27T14:58:38.052Z,28.00
2018-02-27T15:01:06.482Z,28.00
2018-02-27T15:03:35.655Z,29.60
2018-02-27T15:06:04.029Z,29.60
2018-02-27T15:08:32.476Z,28.40
2018-02-27T15:11:00.853Z,28.40
2018-02-27T15:13:29.750Z,29.30
2018-02-27T15:15:58.127Z,28.60
2018-02-27T15:18:26.503Z,29.50
2018-02-27T15:20:54.899Z,29.10
2018-02-27T15:23:23.273Z,28.70
2018-02-27T15:25:51.671Z,29.10
2018-02-27T15:28:20.053Z,29.40
2018-02-27T15:30:48.613Z,30.00
2018-02-27T15:33:17.173Z,29.90
2018-02-27T15:35:45.555Z,30.00
2018-02-27T15:38:13.963Z,30.40
2018-02-27T15:40:42.342Z,30.30
2018-02-27T15:43:10.742Z,30.00
2018-02-27T15:45:39.117Z,30.00
2018-02-27T15:48:07.778Z,30.80
2018-02-27T15:50:36.156Z,29.90
2018-02-27T15:53:04.533Z,29.80
2018-02-27T15:55:32.946Z,30.50
2018-02-27T15:58:01.325Z,30.20
2018-02-27T16:00:29.734Z,30.30
2018-02-27T16:02:58.197Z,30.30
2018-02-27T16:05:27.394Z,30.50
2018-02-27T16:07:56.534Z,30.20
2018-02-27T16:10:24.910Z,30.20
2018-02-27T16:12:53.317Z,30.00
2018-02-27T16:15:21.693Z,29.50
2018-02-27T16:17:50.095Z,29.50
2018-02-27T16:20:18.640Z,29.80
2018-02-27T16:22:47.191Z,29.50
2018-02-27T16:25:15.570Z,29.50
2018-02-27T16:27:43.945Z,30.10
2018-02-27T16:30:12.343Z,30.40
2018-02-27T16:32:40.719Z,30.70
2018-02-27T16:35:09.123Z,30.90
2018-02-27T16:37:37.536Z,31.70
2018-02-27T16:40:06.882Z,32.40
2018-02-27T16:42:35.262Z,32.40
2018-02-27T16:45:03.639Z,32.10
2018-02-27T16:47:32.062Z,32.40
2018-02-27T16:50:00.440Z,33.40
2018-02-27T16:52:30.342Z,33.30
2018-02-27T16:54:58.727Z,33.30
2018-02-27T16:57:27.163Z,33.50
2018-02-27T16:59:55.550Z,33.60
2018-02-27T17:02:23.927Z,33.60
2018-02-27T17:04:52.401Z,35.90
2018-02-27T17:07:20.770Z,35.40
2018-02-27T17:09:49.178Z,34.90
2018-02-27T17:12:17.648Z,34.20
2018-02-27T17:14:46.030Z,34.40
2018-02-27T17:17:14.485Z,34.60
2018-02-27T17:19:43.141Z,35.30
2018-02-27T17:22:11.554Z,35.40
2018-02-27T17:24:39.967Z,35.00
2018-02-27T17:27:08.416Z,35.00
2018-02-27T17:29:36.875Z,35.30
2018-02-27T17:32:06.177Z,35.60
2018-02-27T17:34:34.583Z,35.50
2018-02-27T17:37:02.968Z,35.70
2018-02-27T17:39:31.456Z,35.70
2018-02-27T17:41:59.858Z,36.00
2018-02-27T17:44:28.273Z,35.80
2018-02-27T17:46:57.514Z,35.90
2018-02-27T17:49:25.966Z,35.90
2018-02-27T17:51:54.417Z,35.80
2018-02-27T17:54:24.366Z,36.50
2018-02-27T17:56:52.780Z,36.50
2018-02-27T17:59:21.163Z,36.40
2018-02-27T18:01:49.566Z,36.20
2018-02-27T18:04:18.724Z,36.30
2018-02-27T18:06:47.403Z,36.30
2018-02-27T18:09:15.785Z,36.60
2018-02-27T18:11:44.198Z,37.20
2018-02-27T18:14:12.602Z,37.10
2018-02-27T18:16:41.734Z,36.60
2018-02-27T18:19:10.144Z,36.60
2018-02-27T18:21:38.574Z,37.10
2018-02-27T18:24:07.354Z,36.70
2018-02-27T18:26:35.739Z,36.50
2018-02-27T18:29:04.179Z,36.70
2018-02-27T18:31:33.409Z,37.00
2018-02-27T18:34:02.531Z,37.00
2018-02-27T18:36:31.004Z,36.90
2018-02-27T18:38:59.378Z,38.00
2018-02-27T18:41:27.995Z,38.10
2018-02-27T18:43:56.767Z,37.60
2018-02-27T18:46:25.110Z,37.90
2018-02-27T18:48:55.000Z,37.20
2018-02-27T18:51:24.234Z,37.70
2018-02-27T18:53:52.658Z,37.70
2018-02-27T18:56:21.117Z,38.10
2018-02-27T18:58:50.431Z,39.00
2018-02-27T19:01:18.952Z,38.70
2018-02-27T19:03:48.146Z,38.60
2018-02-27T19:06:17.398Z,38.00
2018-02-27T19:08:46.695Z,38.00
2018-02-27T19:11:15.383Z,38.10
2018-02-27T19:13:43.810Z,38.70
2018-02-27T19:16:13.158Z,38.90
2018-02-27T19:18:41.547Z,38.90
2018-02-27T19:21:09.972Z,39.40
2018-02-27T19:23:38.386Z,40.10
2018-02-27T19:26:07.119Z,40.20
2018-02-27T19:28:35.587Z,40.50
2018-02-27T19:31:03.988Z,40.10
2018-02-27T19:33:33.653Z,39.30
2018-02-27T19:36:02.042Z,39.30
2018-02-27T19:38:30.512Z,39.60
2018-02-27T19:40:58.951Z,40.00
2018-02-27T19:43:28.099Z,39.80
2018-02-27T19:45:56.499Z,39.80
2018-02-27T19:48:24.931Z,39.90
2018-02-27T19:50:53.530Z,39.90
2018-02-27T19:53:21.910Z,39.80
2018-02-27T19:55:50.686Z,39.70
2018-02-27T19:58:19.248Z,40.10
2018-02-27T20:00:47.919Z,40.40
2018-02-27T20:03:16.672Z,40.30
2018-02-27T20:05:45.372Z,40.60
2018-02-27T20:08:14.566Z,40.70
2018-02-27T20:10:43.169Z,40.60
2018-02-27T20:13:12.396Z,41.60
2018-02-27T20:15:41.005Z,41.50
2018-02-27T20:18:11.179Z,41.40
2018-02-27T20:20:40.505Z,41.10
2018-02-27T20:23:15.503Z,41.30
2018-02-27T20:25:45.381Z,41.30
2018-02-27T20:28:20.248Z,40.90
2018-02-27T20:30:50.558Z,40.90
2018-02-27T20:33:20.331Z,41.20
2018-02-27T20:35:48.793Z,41.70
2018-02-27T20:41:21.615Z,41.40
2018-02-27T20:43:50.275Z,41.40
2018-02-27T20:46:19.812Z,41.70
2018-02-27T20:48:48.623Z,42.10
2018-02-27T20:51:18.056Z,42.40
2018-02-27T20:53:46.883Z,42.30
2018-02-27T20:56:16.131Z,42.40
2018-02-27T20:58:46.833Z,42.40
2018-02-27T21:01:16.802Z,42.30
2018-02-27T21:03:46.735Z,42.50
2018-02-27T21:06:16.439Z,42.50
2018-02-27T21:08:46.416Z,42.70
2018-02-27T21:11:16.574Z,42.70
2018-02-27T21:13:46.796Z,42.70
2018-02-27T21:16:15.460Z,42.60
2018-02-27T21:18:45.689Z,42.70
2018-02-27T21:21:14.807Z,42.50
2018-02-27T21:23:44.509Z,42.60
2018-02-27T21:26:14.459Z,42.70
2018-02-27T21:28:45.194Z,43.20
2018-02-27T21:31:15.247Z,43.20
2018-02-27T21:33:44.822Z,43.30
2018-02-27T21:36:13.451Z,43.50
2018-02-27T21:38:43.507Z,43.60
2018-02-27T21:41:14.576Z,43.60
2018-02-27T21:43:46.997Z,43.30
2018-02-27T21:46:18.431Z,43.70
2018-02-27T21:48:47.781Z,43.70
2018-02-27T21:51:18.150Z,43.40
2018-02-27T21:53:47.900Z,43.40
2018-02-27T21:56:18.674Z,44.20
2018-02-27T21:58:48.651Z,43.70
2018-02-27T22:01:18.799Z,43.80
2018-02-27T22:03:48.523Z,43.70
2018-02-27T22:06:17.893Z,43.90
2018-02-27T22:08:48.396Z,44.00
2018-02-27T22:11:18.170Z,44.30
2018-02-27T22:13:48.565Z,44.10
2018-02-27T22:16:18.719Z,44.10
2018-02-27T22:18:49.254Z,44.10
2018-02-27T22:21:18.935Z,44.10
2018-02-27T22:23:48.788Z,44.10
2018-02-27T22:26:18.752Z,44.20
2018-02-27T22:28:48.848Z,44.10
2018-02-27T22:31:20.869Z,44.80
2018-02-27T22:33:51.364Z,44.40
2018-02-27T22:36:21.369Z,44.10
2018-02-27T22:38:50.957Z,44.10
2018-02-27T22:41:22.221Z,44.10
2018-02-27T22:43:51.809Z,44.00
2018-02-27T22:46:21.012Z,44.10
2018-02-27T22:48:49.423Z,44.30
2018-02-27T22:51:17.958Z,44.30
2018-02-27T22:53:46.555Z,44.30
2018-02-27T22:56:15.240Z,44.40
2018-02-27T22:58:44.603Z,44.60
2018-02-27T23:01:14.095Z,44.80
2018-02-27T23:03:43.730Z,44.70
2018-02-27T23:06:12.664Z,44.60
2018-02-27T23:08:42.371Z,45.40
2018-02-27T23:11:10.754Z,45.40
2018-02-27T23:13:40.726Z,46.10
2018-02-27T23:16:09.111Z,46.10
2018-02-27T23:18:37.633Z,46.30
2018-02-27T23:21:06.059Z,46.40
2018-02-27T23:23:35.487Z,46.60
2018-02-27T23:26:15.054Z,47.20
2018-02-27T23:28:44.240Z,47.70
2018-02-27T23:31:13.399Z,47.70
2018-02-27T23:33:49.530Z,47.90
2018-02-27T23:36:18.746Z,47.20
2018-02-27T23:38:47.130Z,47.20
2018-02-27T23:41:15.539Z,47.00
2018-02-27T23:43:43.925Z,47.50
2018-02-27T23:46:12.535Z,47.60
2018-02-27T23:48:40.976Z,47.60
2018-02-27T23:51:09.554Z,47.50
2018-02-27T23:53:37.926Z,47.60
2018-02-27T23:56:06.417Z,47.90
2018-02-27T23:58:34.802Z,48.10
